Airfield :
LOGIN :

Register | Disclaimer

   EN    FR    IT 

 










Legend :    VFR   Marginal VFR   IFR   Intensive IFR   Very Intensive IFR
Visi :
Ceiling :
>= 8 km
>= 3000ft
5 to 8 km
1000 to 3000 ft
1500m to 5 km
500 to 1000 ft
800 to 1500m
200 to 500 ft
< 800m
< 200 ft
Symbols :   Thunderstorms  Fog  Heavy snow  Heavy precipitations  Wind > 20 kt
SIGMETs :     Misc.  Thunderstorms  Icing  Turbulence  Mountain Waves  Volcanic Ashes






- Airport Elevation : 36 ft
- IATA code : LTQ


LFAT - Le Touquet

CURRENT METAR :
  • 280430Z AUTO 25010KT 220V290 9999 FEW019/// BKN054/// BKN076/// ///CB 11/08 Q1004

EXPIRED METARs :
  • 280400Z AUTO 25013KT 220V300 9999 FEW022/// BKN032/// BKN042/// ///CB 13/09 Q1004
  • 280330Z AUTO 25011KT 220V290 9999 RA SCT027/// BKN058/// BKN072/// ///CB 12/09 Q1003
  • 280300Z AUTO 24011KT 200V280 9999 FEW034/// SCT094/// ///TCU 13/09 Q1003
  • 280230Z AUTO 23006KT 190V270 9999 FEW031/// SCT038/// BKN050/// ///CB 11/08 Q1003
  • 280200Z AUTO 24007KT 9999 FEW037/// SCT054/// BKN074/// ///CB 12/09 Q1003

Expired Forecast.
ATIS : +33 3 21 06 62 84



MET'MAP, your aeronautical weather chart ! - Copyright ORBIFLY December 2007 - Disclaimer

ORBIFLY MET'MAP TEAM :

Programming & Development : Alexandra Zaïnal
Concept & original design : Baudouin d'Aumeries
Assistance for programming : Marc-Olivier Méhu
Technical & hardware support : Manuel Goepfert

Contact : metmap@orbifly.com




SOURCES & CREDITS :

   NOAA